Kenosha, Wisconsin
Current Conditions -  °F | °C
As of 1:53 PM on Thursday 23 Oct 2014 (Local Time) from KENW Reporting Station
Clear Clear  
Wind Chill: 59°   Ceiling: Unl
Heat Index: 59°   Visibility: 10mi
Dew Point: 43°   Wind: 8mph
Humidity: 55%   Direction: 210°SSW
Pressure: 30.09"   Gusts: NA
Location:  42.59°N, 87.82°W
Report Text: KENW 231853Z 21007KT 10SM CLR 15/06 A3009 RMK AO2 SLP195 T01500061
Loading
Personal Weather Stations






























Interactive Weather Map New forecast layout! Learn more

10-Day Weather Forecast

Advertisements
Track Severe Weather on mobile